Terminal Aerodrome Forecast
Issued by NWS Milwaukee/Sullivan, WI

Home | Current Version | Previous Version | Text Only | Print | Product List | Glossary On
Versions: 1 2 3 4 5 6 7 8 9 10 11 12 13 14 15 16 17 18 19 20 21 22 23 24 25 26
000
FTUS43 KMKX 230908 AAB
TAFMSN
TAF AMD
KMSN 230908Z 2309/2406 00000KT 1 1/2SM BR BKN250
     FM231400 20007KT P6SM BKN200
     FM231700 24008KT P6SM BKN200
     FM232000 29009KT P6SM OVC150
     FM232300 29008KT P6SM VCSH BKN050
     FM240400 30009KT P6SM VCSH BKN020=

USA.gov is the U.S. government's official web portal to all federal, state and local government web resources and services.